Time;durP1;ratioP1;P1;durP2;ratioP2;P2;SDS_P1;SDS_P2;PMS_P1;PMS_P2;Temp;Humidity;BMP_temperature;BMP_pressure;BME280_temperature;BME280_humidity;BME280_pressure;Samples;Min_cycle;Max_cycle;Signal;HPM_P1;HPM_P2
2023/10/02 00:03:32;;;;;;;;;;;;;;;;;;5050094;28;19955;-60
2023/10/02 00:05:58;;;;;;;;;;;;;;;;;;5042523;28;20070;-60
2023/10/02 00:08:40;;;;;;;;;;;;;;;;;;5037801;28;20390;-60
2023/10/02 00:11:06;;;;;;;;;;;;;;;;;;5045662;28;19995;-58
2023/10/02 00:13:32;;;;;;;;;;;;;;;;;;5047151;28;20400;-58
2023/10/02 00:15:58;;;;;;;;;;;;;;;;;;5049316;28;19913;-58
2023/10/02 00:18:27;;;;;;;;;;;;;;;;;;5043414;28;19932;-58
2023/10/02 00:21:17;;;;;;;;;;;;;;;;;;5042563;28;19960;-58
2023/10/02 00:23:59;;;;;;;;;;;;;;;;;;5040807;28;19925;-58
2023/10/02 00:26:24;;;;;;;;;;;;;;;;;;5043086;28;19921;-59
2023/10/02 00:28:50;;;;;;;;;;;;;;;;;;5049914;28;19963;-59
2023/10/02 00:31:32;;;;;;;;;;;;;;;;;;5051388;28;19917;-59
2023/10/02 00:33:59;;;;;;;;;;;;;;;;;;5048233;28;19913;-58
2023/10/02 00:36:26;;;;;;;;;;;;;;;;;;5052947;28;19912;-58
2023/10/02 00:38:52;;;;;;;;;;;;;;;;;;5041655;28;19913;-58
2023/10/02 00:41:18;;;;;;;;;;;;;;;;;;5048439;28;20309;-59
2023/10/02 00:43:45;;;;;;;;;;;;;;;;;;5048367;28;20011;-57
2023/10/02 00:46:23;;;;;;;;;;;;;;;;;;5049473;28;19912;-59
2023/10/02 00:48:49;;;;;;;;;;;;;;;;;;5049683;28;19912;-60
2023/10/02 00:51:15;;;;;;;;;;;;;;;;;;5046058;28;19926;-59
2023/10/02 00:53:45;;;;;;;;;;;;;;;;;;5044800;28;20285;-57
2023/10/02 00:56:21;;;;;;;;;;;;;;;;;;5054578;28;19935;-60
2023/10/02 00:58:54;;;;;;;;;;;;;;;;;;5049467;28;20331;-57
2023/10/02 01:01:20;;;;;;;;;;;;;;;;;;5041461;28;19921;-62
2023/10/02 01:06:33;;;;;;;;;;;;;;;;;;5044599;28;19963;-62
2023/10/02 01:09:00;;;;;;;;;;;;;;;;;;5044479;28;20400;-62
2023/10/02 01:11:26;;;;;;;;;;;;;;;;;;5051376;28;19912;-62
2023/10/02 01:13:54;;;;;;;;;;;;;;;;;;5053734;28;19917;-62
2023/10/02 01:16:20;;;;;;;;;;;;;;;;;;5049954;28;19913;-61
2023/10/02 01:18:48;;;;;;;;;;;;;;;;;;5039815;28;19956;-60
2023/10/02 01:21:18;;;;;;;;;;;;;;;;;;5048993;28;19913;-60
2023/10/02 01:23:44;;;;;;;;;;;;;;;;;;5050125;28;19921;-60
2023/10/02 01:26:10;;;;;;;;;;;;;;;;;;5051070;28;20392;-61
2023/10/02 01:28:51;;;;;;;;;;;;;;;;;;5045430;28;19913;-62
2023/10/02 01:31:35;;;;;;;;;;;;;;;;;;5047011;28;20273;-62
2023/10/02 01:34:02;;;;;;;;;;;;;;;;;;5048397;28;19913;-61
2023/10/02 01:36:31;;;;;;;;;;;;;;;;;;5048990;28;20381;-61
2023/10/02 01:38:59;;;;;;;;;;;;;;;;;;5045511;28;19920;-62
2023/10/02 01:41:26;;;;;;;;;;;;;;;;;;5049916;28;20404;-59
2023/10/02 01:43:52;;;;;;;;;;;;;;;;;;5050072;28;20074;-62
2023/10/02 01:46:18;;;;;;;;;;;;;;;;;;5050522;28;20007;-62
2023/10/02 01:48:48;;;;;;;;;;;;;;;;;;5048811;28;19912;-62
2023/10/02 01:51:20;;;;;;;;;;;;;;;;;;5044360;28;19917;-62
2023/10/02 01:53:46;;;;;;;;;;;;;;;;;;5051127;28;19913;-62
2023/10/02 01:56:12;;;;;;;;;;;;;;;;;;5044388;28;20399;-61
2023/10/02 01:58:39;;;;;;;;;;;;;;;;;;5042595;28;19953;-61
2023/10/02 02:01:06;;;;;;;;;;;;;;;;;;5031032;28;19913;-62
2023/10/02 02:03:33;;;;;;;;;;;;;;;;;;5049885;28;19917;-61
2023/10/02 02:06:08;;;;;;;;;;;;;;;;;;5050320;28;19917;-62
2023/10/02 02:08:35;;;;;;;;;;;;;;;;;;5045889;28;20333;-61
2023/10/02 02:11:14;;;;;;;;;;;;;;;;;;5050946;28;19917;-62
2023/10/02 02:13:44;;;;;;;;;;;;;;;;;;5044221;28;19940;-62
2023/10/02 02:16:10;;;;;;;;;;;;;;;;;;5047907;28;19966;-61
2023/10/02 02:18:35;;;;;;;;;;;;;;;;;;5044134;28;19967;-61
2023/10/02 02:21:02;;;;;;;;;;;;;;;;;;5050774;28;20307;-61
2023/10/02 02:23:28;;;;;;;;;;;;;;;;;;5052569;28;19951;-61
2023/10/02 02:25:54;;;;;;;;;;;;;;;;;;5047215;28;20058;-62
2023/10/02 02:28:20;;;;;;;;;;;;;;;;;;5045277;28;20048;-62
2023/10/02 02:30:47;;;;;;;;;;;;;;;;;;5043824;28;19968;-61
2023/10/02 02:33:13;;;;;;;;;;;;;;;;;;5048077;28;19917;-62
2023/10/02 02:35:39;;;;;;;;;;;;;;;;;;5050496;28;19970;-62
2023/10/02 02:38:13;;;;;;;;;;;;;;;;;;5040030;28;19909;-61
2023/10/02 02:40:40;;;;;;;;;;;;;;;;;;5048925;28;19917;-62
2023/10/02 02:43:19;;;;;;;;;;;;;;;;;;5050506;28;20361;-61
2023/10/02 02:45:45;;;;;;;;;;;;;;;;;;5041403;28;19923;-61
2023/10/02 02:48:12;;;;;;;;;;;;;;;;;;5048197;28;19909;-62
2023/10/02 02:50:40;;;;;;;;;;;;;;;;;;5042562;28;19923;-62
2023/10/02 02:53:22;;;;;;;;;;;;;;;;;;5048889;28;19916;-61
2023/10/02 02:55:48;;;;;;;;;;;;;;;;;;5040958;28;19913;-61
2023/10/02 02:58:14;;;;;;;;;;;;;;;;;;5045982;28;19948;-62
2023/10/02 03:00:40;;;;;;;;;;;;;;;;;;5047035;28;19994;-61
2023/10/02 03:03:32;;;;;;;;;;;;;;;;;;5049774;28;19956;-61
2023/10/02 03:05:58;;;;;;;;;;;;;;;;;;5050195;28;20515;-62
2023/10/02 03:08:37;;;;;;;;;;;;;;;;;;5043040;28;20365;-62
2023/10/02 03:11:06;;;;;;;;;;;;;;;;;;5049346;28;19964;-62
2023/10/02 03:13:34;;;;;;;;;;;;;;;;;;5045496;28;19917;-61
2023/10/02 03:16:08;;;;;;;;;;;;;;;;;;5050273;28;19917;-62
2023/10/02 03:18:36;;;;;;;;;;;;;;;;;;5039362;28;19909;-62
2023/10/02 03:23:39;;;;;;;;;;;;;;;;;;5036238;28;19920;-61
2023/10/02 03:26:07;;;;;;;;;;;;;;;;;;5032409;28;19968;-62
2023/10/02 03:28:33;;;;;;;;;;;;;;;;;;5039699;28;20294;-62
2023/10/02 03:31:00;;;;;;;;;;;;;;;;;;5042941;28;19917;-60
2023/10/02 03:33:31;;;;;;;;;;;;;;;;;;5037759;28;19928;-61
2023/10/02 03:35:58;;;;;;;;;;;;;;;;;;5047382;28;20338;-61
2023/10/02 03:38:24;;;;;;;;;;;;;;;;;;5047502;28;20016;-62
2023/10/02 03:40:50;;;;;;;;;;;;;;;;;;5050468;28;20048;-61
2023/10/02 03:43:29;;;;;;;;;;;;;;;;;;5045646;28;19924;-62
2023/10/02 03:45:55;;;;;;;;;;;;;;;;;;5043400;28;19921;-61
2023/10/02 03:48:21;;;;;;;;;;;;;;;;;;5046364;28;19970;-61
2023/10/02 03:50:48;;;;;;;;;;;;;;;;;;5040681;28;20015;-59
2023/10/02 03:53:28;;;;;;;;;;;;;;;;;;5050252;28;20400;-61
2023/10/02 03:55:59;;;;;;;;;;;;;;;;;;5050901;28;20000;-61
2023/10/02 03:58:38;;;;;;;;;;;;;;;;;;5049937;28;19924;-62
2023/10/02 04:01:08;;;;;;;;;;;;;;;;;;5046592;28;19913;-62
2023/10/02 04:03:34;;;;;;;;;;;;;;;;;;5039230;28;20284;-62
2023/10/02 04:06:03;;;;;;;;;;;;;;;;;;5049053;28;19959;-61
2023/10/02 04:08:37;;;;;;;;;;;;;;;;;;5053985;28;19913;-60
2023/10/02 04:11:03;;;;;;;;;;;;;;;;;;5054351;28;20012;-61
2023/10/02 04:13:32;;;;;;;;;;;;;;;;;;5048826;28;19958;-63
2023/10/02 04:19:01;;;;;;;;;;;;;;;;;;5043201;28;19978;-62
2023/10/02 04:21:27;;;;;;;;;;;;;;;;;;5050561;28;19956;-61
2023/10/02 04:23:53;;;;;;;;;;;;;;;;;;5054035;28;19998;-62
2023/10/02 04:26:19;;;;;;;;;;;;;;;;;;5053033;28;19998;-61
2023/10/02 04:28:49;;;;;;;;;;;;;;;;;;5047727;28;19916;-61
2023/10/02 04:31:20;;;;;;;;;;;;;;;;;;5046318;28;20336;-60
2023/10/02 04:33:52;;;;;;;;;;;;;;;;;;5044674;28;19920;-58
2023/10/02 04:36:24;;;;;;;;;;;;;;;;;;5046686;28;19917;-59
2023/10/02 04:38:55;;;;;;;;;;;;;;;;;;5044886;28;19917;-61
2023/10/02 04:41:27;;;;;;;;;;;;;;;;;;5048683;28;19999;-58
2023/10/02 04:43:57;;;;;;;;;;;;;;;;;;5049038;28;19916;-58
2023/10/02 04:46:25;;;;;;;;;;;;;;;;;;5045952;28;19917;-58
2023/10/02 04:48:59;;;;;;;;;;;;;;;;;;5046578;28;20293;-58
2023/10/02 04:51:28;;;;;;;;;;;;;;;;;;5052940;28;20000;-59
2023/10/02 04:53:57;;;;;;;;;;;;;;;;;;5044563;28;20003;-59
2023/10/02 04:56:24;;;;;;;;;;;;;;;;;;5046646;28;19939;-59
2023/10/02 04:58:51;;;;;;;;;;;;;;;;;;5053109;28;19912;-61
2023/10/02 05:01:29;;;;;;;;;;;;;;;;;;5047282;28;20000;-59
2023/10/02 05:03:55;;;;;;;;;;;;;;;;;;5052967;28;19908;-58
2023/10/02 05:06:44;;;;;;;;;;;;;;;;;;5053322;28;19917;-59
2023/10/02 05:14:26;;;;;;;;;;;;;;;;;;5050459;28;19912;-58
2023/10/02 05:16:52;;;;;;;;;;;;;;;;;;5049893;28;19916;-58
2023/10/02 05:19:46;;;;;;;;;;;;;;;;;;5039756;28;20043;-59
2023/10/02 05:22:04;;;;;;;;;;;;;;;;;;5041567;28;19917;-58
2023/10/02 05:24:32;;;;;;;;;;;;;;;;;;5045903;28;20010;-62
2023/10/02 05:26:59;;;;;;;;;;;;;;;;;;5038200;28;19920;-58
2023/10/02 05:29:41;;;;;;;;;;;;;;;;;;5050639;28;19913;-59
2023/10/02 05:32:19;;;;;;;;;;;;;;;;;;5044909;28;19986;-59
2023/10/02 05:34:58;;;;;;;;;;;;;;;;;;5048060;28;19920;-58
2023/10/02 05:37:30;;;;;;;;;;;;;;;;;;5048094;28;19990;-59
2023/10/02 05:40:27;;;;;;;;;;;;;;;;;;5051930;28;20380;-59
2023/10/02 05:42:53;;;;;;;;;;;;;;;;;;5042725;28;19971;-61
2023/10/02 05:45:20;;;;;;;;;;;;;;;;;;5047564;28;19982;-62
2023/10/02 05:47:48;;;;;;;;;;;;;;;;;;5049499;28;20417;-61
2023/10/02 05:50:15;;;;;;;;;;;;;;;;;;5050376;28;19917;-62
2023/10/02 05:52:48;;;;;;;;;;;;;;;;;;5042907;28;20297;-62
2023/10/02 05:55:17;;;;;;;;;;;;;;;;;;5052839;28;19967;-62
2023/10/02 05:57:43;;;;;;;;;;;;;;;;;;5051516;28;22107;-61
2023/10/02 06:00:16;;;;;;;;;;;;;;;;;;5046899;28;19921;-61
2023/10/02 06:02:56;;;;;;;;;;;;;;;;;;5045610;28;19917;-62
2023/10/02 06:05:23;;;;;;;;;;;;;;;;;;5046446;28;19940;-61
2023/10/02 06:07:51;;;;;;;;;;;;;;;;;;5045208;28;19959;-62
2023/10/02 06:10:26;;;;;;;;;;;;;;;;;;5044771;28;20361;-61
2023/10/02 06:13:02;;;;;;;;;;;;;;;;;;5047828;28;19920;-62
2023/10/02 06:15:43;;;;;;;;;;;;;;;;;;5046573;28;20412;-61
2023/10/02 06:18:09;;;;;;;;;;;;;;;;;;5045717;28;20003;-62
2023/10/02 06:20:35;;;;;;;;;;;;;;;;;;5042644;28;20008;-62
2023/10/02 06:23:19;;;;;;;;;;;;;;;;;;5047898;28;19924;-62
2023/10/02 06:25:46;;;;;;;;;;;;;;;;;;5025371;28;20388;-62
2023/10/02 06:28:27;;;;;;;;;;;;;;;;;;5051901;28;19936;-62
2023/10/02 06:30:54;;;;;;;;;;;;;;;;;;5043546;28;20684;-62
2023/10/02 06:33:21;;;;;;;;;;;;;;;;;;5049283;28;19920;-62
2023/10/02 06:35:56;;;;;;;;;;;;;;;;;;5037203;28;19914;-61
2023/10/02 06:38:22;;;;;;;;;;;;;;;;;;5047210;28;19952;-61
2023/10/02 06:40:57;;;;;;;;;;;;;;;;;;5042920;28;20381;-62
2023/10/02 06:43:29;;;;;;;;;;;;;;;;;;5033859;28;20000;-62
2023/10/02 06:46:06;;;;;;;;;;;;;;;;;;5040570;28;19932;-62
2023/10/02 06:48:34;;;;;;;;;;;;;;;;;;5045358;28;19967;-62
2023/10/02 06:51:00;;;;;;;;;;;;;;;;;;5049564;28;19924;-60
2023/10/02 06:53:26;;;;;;;;;;;;;;;;;;5047035;28;20031;-61
2023/10/02 06:55:58;;;;;;;;;;;;;;;;;;5048435;28;19919;-61
2023/10/02 06:58:25;;;;;;;;;;;;;;;;;;5044326;28;20549;-60
2023/10/02 07:01:01;;;;;;;;;;;;;;;;;;5038272;28;20015;-59
2023/10/02 07:03:27;;;;;;;;;;;;;;;;;;5046460;28;19948;-60
2023/10/02 07:05:53;;;;;;;;;;;;;;;;;;5050490;28;20349;-60
2023/10/02 07:08:22;;;;;;;;;;;;;;;;;;5046785;28;20035;-60
2023/10/02 07:10:48;;;;;;;;;;;;;;;;;;5047040;28;19917;-61
2023/10/02 07:13:20;;;;;;;;;;;;;;;;;;5044259;28;19917;-61
2023/10/02 07:15:46;;;;;;;;;;;;;;;;;;5037944;28;19928;-60
2023/10/02 07:18:12;;;;;;;;;;;;;;;;;;5045565;28;19920;-61
2023/10/02 07:20:42;;;;;;;;;;;;;;;;;;5040577;28;19957;-60
2023/10/02 07:23:09;;;;;;;;;;;;;;;;;;5038233;28;20393;-61
2023/10/02 07:25:35;;;;;;;;;;;;;;;;;;5048147;28;19921;-60
2023/10/02 07:28:03;;;;;;;;;;;;;;;;;;5039530;28;19923;-61
2023/10/02 07:30:29;;;;;;;;;;;;;;;;;;5044160;28;19913;-61
2023/10/02 07:33:03;;;;;;;;;;;;;;;;;;5044162;28;19912;-60
2023/10/02 07:35:28;;;;;;;;;;;;;;;;;;5043936;28;19978;-60
2023/10/02 07:38:00;;;;;;;;;;;;;;;;;;5023747;28;19952;-60
2023/10/02 07:40:48;;;;;;;;;;;;;;;;;;5045978;28;19913;-61
2023/10/02 07:43:13;;;;;;;;;;;;;;;;;;5045416;28;19981;-61
2023/10/02 07:45:38;;;;;;;;;;;;;;;;;;5043518;28;20010;-61
2023/10/02 07:48:12;;;;;;;;;;;;;;;;;;5047216;28;19916;-61
2023/10/02 07:50:39;;;;;;;;;;;;;;;;;;5037972;28;19951;-61
2023/10/02 07:53:06;;;;;;;;;;;;;;;;;;5040106;28;19917;-61
2023/10/02 07:55:32;;;;;;;;;;;;;;;;;;5046917;28;19913;-60
2023/10/02 07:58:00;;;;;;;;;;;;;;;;;;5046724;28;20273;-61
2023/10/02 08:00:41;;;;;;;;;;;;;;;;;;5046779;28;20239;-61
2023/10/02 08:03:31;;;;;;;;;;;;;;;;;;5049677;28;19913;-59
2023/10/02 08:05:56;;;;;;;;;;;;;;;;;;5038868;28;19925;-62
2023/10/02 08:08:23;;;;;;;;;;;;;;;;;;5046169;28;19919;-63
2023/10/02 08:10:49;;;;;;;;;;;;;;;;;;5040779;28;19919;-59
2023/10/02 08:13:14;;;;;;;;;;;;;;;;;;5047377;28;19912;-61
2023/10/02 08:15:40;;;;;;;;;;;;;;;;;;5048408;28;19921;-61
2023/10/02 08:18:16;;;;;;;;;;;;;;;;;;5041197;28;19966;-61
2023/10/02 08:20:43;;;;;;;;;;;;;;;;;;5043282;28;19920;-61
2023/10/02 08:23:09;;;;;;;;;;;;;;;;;;5050597;28;19978;-61
2023/10/02 08:25:35;;;;;;;;;;;;;;;;;;5048550;28;19978;-61
2023/10/02 08:28:01;;;;;;;;;;;;;;;;;;5041608;28;19999;-61
2023/10/02 08:30:28;;;;;;;;;;;;;;;;;;5048407;28;20388;-61
2023/10/02 08:32:53;;;;;;;;;;;;;;;;;;5044907;28;19921;-61
2023/10/02 08:35:19;;;;;;;;;;;;;;;;;;5043271;28;20011;-62
2023/10/02 08:37:45;;;;;;;;;;;;;;;;;;5044163;28;20270;-61
2023/10/02 08:40:14;;;;;;;;;;;;;;;;;;5040449;28;19927;-62
2023/10/02 08:42:46;;;;;;;;;;;;;;;;;;5040002;28;20274;-61
2023/10/02 08:45:18;;;;;;;;;;;;;;;;;;5046768;28;20022;-61
2023/10/02 08:47:47;;;;;;;;;;;;;;;;;;5042841;28;19971;-61
2023/10/02 08:50:14;;;;;;;;;;;;;;;;;;5044834;28;20032;-61
2023/10/02 08:52:47;;;;;;;;;;;;;;;;;;5050818;28;19913;-62
2023/10/02 08:55:26;;;;;;;;;;;;;;;;;;5051887;28;19924;-61
2023/10/02 08:57:52;;;;;;;;;;;;;;;;;;5042381;28;19913;-62
2023/10/02 09:00:20;;;;;;;;;;;;;;;;;;5049707;28;19938;-61
2023/10/02 09:02:54;;;;;;;;;;;;;;;;;;5045707;28;19928;-61
2023/10/02 09:05:20;;;;;;;;;;;;;;;;;;5049885;28;19917;-62
2023/10/02 09:08:00;;;;;;;;;;;;;;;;;;5050617;28;19991;-62
2023/10/02 09:10:26;;;;;;;;;;;;;;;;;;5046544;28;19913;-62
2023/10/02 09:12:52;;;;;;;;;;;;;;;;;;5050243;28;19971;-61
2023/10/02 09:15:24;;;;;;;;;;;;;;;;;;5047964;28;19913;-61
2023/10/02 09:17:50;;;;;;;;;;;;;;;;;;5040111;28;20000;-62
2023/10/02 09:20:16;;;;;;;;;;;;;;;;;;5049992;28;20420;-62
2023/10/02 09:22:44;;;;;;;;;;;;;;;;;;5047352;28;20012;-62
2023/10/02 09:25:10;;;;;;;;;;;;;;;;;;5062078;28;19923;-62
2023/10/02 09:27:41;;;;;;;;;;;;;;;;;;5049224;28;19931;-61
2023/10/02 09:30:17;;;;;;;;;;;;;;;;;;5048801;28;20008;-62
2023/10/02 09:32:52;;;;;;;;;;;;;;;;;;5047799;28;19920;-62
2023/10/02 09:35:39;;;;;;;;;;;;;;;;;;5050636;28;19912;-61
2023/10/02 09:38:10;;;;;;;;;;;;;;;;;;5042433;28;20372;-61
2023/10/02 09:43:41;;;;;;;;;;;;;;;;;;4952601;28;20371;-61
2023/10/02 09:46:15;;;;;;;;;;;;;;;;;;4949849;28;19922;-61
2023/10/02 09:48:53;;;;;;;;;;;;;;;;;;5003851;28;19913;-61
2023/10/02 09:51:20;;;;;;;;;;;;;;;;;;5045958;28;19917;-60
2023/10/02 09:54:02;;;;;;;;;;;;;;;;;;5052780;28;19919;-61
2023/10/02 09:56:28;;;;;;;;;;;;;;;;;;5047718;28;20291;-62
2023/10/02 09:58:54;;;;;;;;;;;;;;;;;;5043739;28;19999;-61
2023/10/02 10:03:52;;;;;;;;;;;;;;;;;;5046868;28;19913;-61
2023/10/02 10:06:19;;;;;;;;;;;;;;;;;;5046750;28;20292;-61
2023/10/02 10:09:18;;;;;;;;;;;;;;;;;;5043564;28;19913;-61
2023/10/02 10:11:34;;;;;;;;;;;;;;;;;;5042665;28;19912;-62
2023/10/02 10:14:00;;;;;;;;;;;;;;;;;;5047928;28;19921;-61
2023/10/02 10:16:29;;;;;;;;;;;;;;;;;;5047638;28;19971;-61
2023/10/02 10:21:30;;;;;;;;;;;;;;;;;;5042288;28;19920;-61
2023/10/02 10:24:10;;;;;;;;;;;;;;;;;;5047416;28;20000;-61
2023/10/02 10:26:36;;;;;;;;;;;;;;;;;;5044436;28;19935;-60
2023/10/02 10:29:01;;;;;;;;;;;;;;;;;;5044020;28;19952;-61
2023/10/02 10:31:29;;;;;;;;;;;;;;;;;;5048347;28;20003;-61
2023/10/02 10:33:56;;;;;;;;;;;;;;;;;;5047231;28;19923;-61
2023/10/02 10:36:22;;;;;;;;;;;;;;;;;;5048345;28;19921;-61
2023/10/02 10:38:49;;;;;;;;;;;;;;;;;;5043061;28;19967;-61
2023/10/02 10:41:15;;;;;;;;;;;;;;;;;;5050180;28;19913;-61
2023/10/02 10:43:44;;;;;;;;;;;;;;;;;;5040442;28;19956;-60
2023/10/02 10:46:13;;;;;;;;;;;;;;;;;;5048808;28;19929;-61
2023/10/02 10:48:40;;;;;;;;;;;;;;;;;;5046584;28;20420;-61
2023/10/02 10:51:06;;;;;;;;;;;;;;;;;;5041859;28;19919;-61
2023/10/02 10:53:32;;;;;;;;;;;;;;;;;;5048831;28;19956;-61
2023/10/02 10:55:58;;;;;;;;;;;;;;;;;;5046713;28;20275;-59
2023/10/02 10:58:31;;;;;;;;;;;;;;;;;;5048738;28;19920;-61
2023/10/02 11:00:58;;;;;;;;;;;;;;;;;;5048857;28;19956;-61
2023/10/02 11:03:26;;;;;;;;;;;;;;;;;;5054159;28;20388;-61
2023/10/02 11:05:52;;;;;;;;;;;;;;;;;;5040991;28;19917;-61
2023/10/02 11:08:24;;;;;;;;;;;;;;;;;;5051034;28;19915;-61
2023/10/02 11:10:52;;;;;;;;;;;;;;;;;;5044481;28;19916;-61
2023/10/02 11:13:18;;;;;;;;;;;;;;;;;;5045298;28;19928;-61
2023/10/02 11:18:18;;;;;;;;;;;;;;;;;;5045564;28;19963;-61
2023/10/02 11:20:44;;;;;;;;;;;;;;;;;;5042720;28;19917;-62
2023/10/02 11:23:10;;;;;;;;;;;;;;;;;;5040849;28;19955;-61
2023/10/02 11:25:39;;;;;;;;;;;;;;;;;;5050416;28;20325;-61
2023/10/02 11:28:05;;;;;;;;;;;;;;;;;;5048991;28;19917;-61
2023/10/02 11:30:31;;;;;;;;;;;;;;;;;;5046891;28;19960;-64
2023/10/02 11:33:04;;;;;;;;;;;;;;;;;;5046604;28;20349;-60
2023/10/02 11:35:37;;;;;;;;;;;;;;;;;;5050348;28;20346;-60
2023/10/02 11:38:03;;;;;;;;;;;;;;;;;;5045177;28;20385;-61
2023/10/02 11:40:29;;;;;;;;;;;;;;;;;;5051655;28;19917;-61
2023/10/02 11:42:59;;;;;;;;;;;;;;;;;;5040134;28;20368;-61
2023/10/02 11:45:26;;;;;;;;;;;;;;;;;;5048724;28;19969;-61
2023/10/02 11:47:52;;;;;;;;;;;;;;;;;;5049830;28;19920;-61
2023/10/02 11:50:18;;;;;;;;;;;;;;;;;;5043902;28;20058;-61
2023/10/02 11:52:44;;;;;;;;;;;;;;;;;;5040933;28;19950;-60
2023/10/02 11:55:10;;;;;;;;;;;;;;;;;;5049359;28;19960;-61
2023/10/02 11:57:37;;;;;;;;;;;;;;;;;;5044530;28;20099;-61
2023/10/02 12:00:08;;;;;;;;;;;;;;;;;;5040707;28;19924;-61
2023/10/02 12:02:34;;;;;;;;;;;;;;;;;;5043501;28;20353;-61
2023/10/02 12:05:00;;;;;;;;;;;;;;;;;;5039551;28;20016;-61
2023/10/02 12:07:26;;;;;;;;;;;;;;;;;;5048135;28;19944;-62
2023/10/02 12:09:53;;;;;;;;;;;;;;;;;;5046476;28;19919;-60
2023/10/02 12:12:19;;;;;;;;;;;;;;;;;;5047254;28;19962;-62
2023/10/02 12:14:45;;;;;;;;;;;;;;;;;;5046600;28;20004;-61
2023/10/02 12:17:14;;;;;;;;;;;;;;;;;;5044629;28;19919;-61
2023/10/02 12:19:41;;;;;;;;;;;;;;;;;;5048656;28;20403;-62
2023/10/02 12:22:06;;;;;;;;;;;;;;;;;;5049916;28;19944;-62
2023/10/02 12:24:34;;;;;;;;;;;;;;;;;;5052526;28;20018;-60
2023/10/02 12:27:00;;;;;;;;;;;;;;;;;;5046643;28;19931;-59
2023/10/02 12:29:26;;;;;;;;;;;;;;;;;;5046856;28;19913;-61
2023/10/02 12:31:52;;;;;;;;;;;;;;;;;;5044394;28;19917;-61
2023/10/02 12:34:18;;;;;;;;;;;;;;;;;;5050989;28;20003;-60
2023/10/02 12:36:44;;;;;;;;;;;;;;;;;;5047063;28;20043;-61
2023/10/02 12:39:13;;;;;;;;;;;;;;;;;;5048999;28;19955;-62
2023/10/02 12:41:40;;;;;;;;;;;;;;;;;;5042046;28;20007;-61
2023/10/02 12:44:08;;;;;;;;;;;;;;;;;;5040225;28;19916;-61
2023/10/02 12:46:40;;;;;;;;;;;;;;;;;;5051500;28;20444;-61
2023/10/02 12:49:07;;;;;;;;;;;;;;;;;;5046016;28;20302;-61
2023/10/02 12:51:33;;;;;;;;;;;;;;;;;;5049440;28;20000;-61
2023/10/02 12:53:59;;;;;;;;;;;;;;;;;;5042806;28;20012;-61
2023/10/02 12:56:25;;;;;;;;;;;;;;;;;;5052749;28;19913;-61
2023/10/02 12:58:51;;;;;;;;;;;;;;;;;;5049959;28;19916;-61
2023/10/02 13:01:17;;;;;;;;;;;;;;;;;;5046154;28;20393;-61
2023/10/02 13:03:43;;;;;;;;;;;;;;;;;;5042839;28;19947;-59
2023/10/02 13:06:12;;;;;;;;;;;;;;;;;;5055688;28;19976;-59
2023/10/02 13:08:37;;;;;;;;;;;;;;;;;;5051681;28;19924;-59
2023/10/02 13:11:04;;;;;;;;;;;;;;;;;;5049863;28;20369;-59
2023/10/02 13:13:30;;;;;;;;;;;;;;;;;;5048017;28;20292;-59
2023/10/02 13:15:56;;;;;;;;;;;;;;;;;;5043926;28;19995;-59
2023/10/02 13:18:22;;;;;;;;;;;;;;;;;;5048955;28;19952;-59
2023/10/02 13:20:50;;;;;;;;;;;;;;;;;;5046892;28;20365;-58
2023/10/02 13:23:16;;;;;;;;;;;;;;;;;;5044859;28;20383;-59
2023/10/02 13:25:43;;;;;;;;;;;;;;;;;;5050602;28;19917;-59
2023/10/02 13:28:11;;;;;;;;;;;;;;;;;;5051304;28;19952;-60
2023/10/02 13:30:38;;;;;;;;;;;;;;;;;;5047998;28;20049;-60
2023/10/02 13:33:04;;;;;;;;;;;;;;;;;;5048953;28;20292;-59
2023/10/02 13:35:32;;;;;;;;;;;;;;;;;;5044229;28;19924;-59
2023/10/02 13:37:59;;;;;;;;;;;;;;;;;;5050923;28;20026;-59
2023/10/02 13:40:26;;;;;;;;;;;;;;;;;;5038935;28;19971;-58
2023/10/02 13:42:52;;;;;;;;;;;;;;;;;;5041608;28;20012;-59
2023/10/02 13:45:19;;;;;;;;;;;;;;;;;;5047804;28;20392;-59
2023/10/02 13:47:45;;;;;;;;;;;;;;;;;;5047666;28;20450;-59
2023/10/02 13:50:11;;;;;;;;;;;;;;;;;;5040003;28;19960;-60
2023/10/02 13:52:38;;;;;;;;;;;;;;;;;;5049261;28;20327;-59
2023/10/02 13:55:19;;;;;;;;;;;;;;;;;;5053249;28;19917;-59
2023/10/02 13:57:45;;;;;;;;;;;;;;;;;;5030226;28;19913;-59
2023/10/02 14:00:10;;;;;;;;;;;;;;;;;;5043924;28;20474;-60
2023/10/02 14:02:38;;;;;;;;;;;;;;;;;;5044661;28;19920;-59
2023/10/02 14:05:04;;;;;;;;;;;;;;;;;;5044934;28;20007;-59
2023/10/02 14:07:30;;;;;;;;;;;;;;;;;;5048354;28;20030;-60
2023/10/02 14:09:56;;;;;;;;;;;;;;;;;;5043206;28;19927;-58
2023/10/02 14:12:22;;;;;;;;;;;;;;;;;;5042799;28;19916;-59
2023/10/02 14:14:49;;;;;;;;;;;;;;;;;;5048308;28;19913;-59
2023/10/02 14:17:15;;;;;;;;;;;;;;;;;;5048193;28;19950;-59
2023/10/02 14:19:42;;;;;;;;;;;;;;;;;;5043795;28;23053;-59
2023/10/02 14:22:09;;;;;;;;;;;;;;;;;;5042543;28;19917;-59
2023/10/02 14:24:35;;;;;;;;;;;;;;;;;;5045861;28;19920;-59
2023/10/02 14:27:02;;;;;;;;;;;;;;;;;;5044835;28;19952;-59
2023/10/02 14:29:28;;;;;;;;;;;;;;;;;;5044998;28;20361;-59
2023/10/02 14:31:54;;;;;;;;;;;;;;;;;;5046897;28;19974;-59
2023/10/02 14:34:21;;;;;;;;;;;;;;;;;;5051670;28;20007;-59
2023/10/02 14:36:47;;;;;;;;;;;;;;;;;;5049106;28;19958;-59
2023/10/02 14:39:15;;;;;;;;;;;;;;;;;;5051411;28;19944;-59
2023/10/02 14:41:41;;;;;;;;;;;;;;;;;;5048844;28;19913;-59
2023/10/02 14:44:07;;;;;;;;;;;;;;;;;;5051373;28;20394;-59
2023/10/02 14:46:33;;;;;;;;;;;;;;;;;;5046307;28;20013;-59
2023/10/02 14:48:59;;;;;;;;;;;;;;;;;;5049903;28;19913;-59
2023/10/02 14:51:25;;;;;;;;;;;;;;;;;;5051370;28;19959;-59
2023/10/02 14:53:51;;;;;;;;;;;;;;;;;;5051752;28;19919;-59
2023/10/02 14:56:17;;;;;;;;;;;;;;;;;;5051085;28;19948;-59
2023/10/02 14:58:52;;;;;;;;;;;;;;;;;;5052208;28;20381;-58
2023/10/02 15:01:18;;;;;;;;;;;;;;;;;;5046701;28;19935;-60
2023/10/02 15:03:44;;;;;;;;;;;;;;;;;;5051952;28;19924;-60
2023/10/02 15:06:10;;;;;;;;;;;;;;;;;;5049573;28;20285;-59
2023/10/02 15:08:36;;;;;;;;;;;;;;;;;;5037047;28;19935;-61
2023/10/02 15:11:03;;;;;;;;;;;;;;;;;;5044348;28;20349;-59
2023/10/02 15:13:30;;;;;;;;;;;;;;;;;;5043780;28;20000;-60
2023/10/02 15:15:57;;;;;;;;;;;;;;;;;;5047106;28;19916;-60
2023/10/02 15:18:23;;;;;;;;;;;;;;;;;;5042349;28;19913;-60
2023/10/02 15:20:52;;;;;;;;;;;;;;;;;;5048582;28;19932;-60
2023/10/02 15:23:18;;;;;;;;;;;;;;;;;;5048900;28;19928;-60
2023/10/02 15:25:44;;;;;;;;;;;;;;;;;;5048157;28;19912;-60
2023/10/02 15:28:10;;;;;;;;;;;;;;;;;;5033837;28;20375;-60
2023/10/02 15:30:36;;;;;;;;;;;;;;;;;;5047700;28;19963;-60
2023/10/02 15:33:02;;;;;;;;;;;;;;;;;;5051525;28;19908;-60
2023/10/02 15:35:30;;;;;;;;;;;;;;;;;;5047260;28;19916;-60
2023/10/02 15:37:56;;;;;;;;;;;;;;;;;;5049894;28;19913;-60
2023/10/02 15:40:21;;;;;;;;;;;;;;;;;;5049787;28;19909;-60
2023/10/02 15:42:47;;;;;;;;;;;;;;;;;;5044099;28;19959;-60
2023/10/02 15:45:16;;;;;;;;;;;;;;;;;;5046942;28;19912;-60
2023/10/02 15:47:45;;;;;;;;;;;;;;;;;;5041210;28;19917;-60
2023/10/02 15:50:11;;;;;;;;;;;;;;;;;;5045560;28;19924;-60
2023/10/02 15:52:37;;;;;;;;;;;;;;;;;;5047639;28;19949;-60
2023/10/02 15:55:03;;;;;;;;;;;;;;;;;;5041456;28;19921;-60
2023/10/02 15:57:29;;;;;;;;;;;;;;;;;;5050107;28;20392;-60
2023/10/02 15:59:56;;;;;;;;;;;;;;;;;;5054233;28;20008;-59
2023/10/02 16:02:23;;;;;;;;;;;;;;;;;;5051259;28;20410;-60
2023/10/02 16:04:49;;;;;;;;;;;;;;;;;;5047879;28;20007;-60
2023/10/02 16:07:15;;;;;;;;;;;;;;;;;;5054745;28;20015;-60
2023/10/02 16:09:40;;;;;;;;;;;;;;;;;;5054919;28;20443;-61
2023/10/02 16:12:06;;;;;;;;;;;;;;;;;;5055153;28;19908;-60
2023/10/02 16:14:32;;;;;;;;;;;;;;;;;;5054875;28;20007;-60
2023/10/02 16:16:58;;;;;;;;;;;;;;;;;;5052972;28;19920;-59
2023/10/02 16:19:24;;;;;;;;;;;;;;;;;;5050988;28;19952;-60
2023/10/02 16:21:50;;;;;;;;;;;;;;;;;;5046285;28;20449;-60
2023/10/02 16:24:16;;;;;;;;;;;;;;;;;;5049371;28;19929;-60
2023/10/02 16:26:42;;;;;;;;;;;;;;;;;;5046458;28;20019;-60
2023/10/02 16:29:12;;;;;;;;;;;;;;;;;;5046843;28;20344;-60
2023/10/02 16:31:42;;;;;;;;;;;;;;;;;;5055024;28;19943;-60
2023/10/02 16:34:08;;;;;;;;;;;;;;;;;;5061278;28;20296;-60
2023/10/02 16:36:33;;;;;;;;;;;;;;;;;;5060368;28;19963;-62
2023/10/02 16:39:00;;;;;;;;;;;;;;;;;;5048226;28;19919;-59
2023/10/02 16:41:29;;;;;;;;;;;;;;;;;;5046541;28;20332;-62
2023/10/02 16:43:55;;;;;;;;;;;;;;;;;;5048888;28;19917;-61
2023/10/02 16:46:21;;;;;;;;;;;;;;;;;;5054384;28;20395;-62
2023/10/02 16:48:49;;;;;;;;;;;;;;;;;;5047349;28;19917;-61
2023/10/02 16:51:15;;;;;;;;;;;;;;;;;;5050394;28;19917;-61
2023/10/02 16:53:42;;;;;;;;;;;;;;;;;;5054723;28;19932;-62
2023/10/02 16:56:08;;;;;;;;;;;;;;;;;;5051319;28;19964;-62
2023/10/02 16:58:36;;;;;;;;;;;;;;;;;;5051280;28;20407;-62
2023/10/02 17:01:02;;;;;;;;;;;;;;;;;;5054009;28;19956;-62
2023/10/02 17:03:28;;;;;;;;;;;;;;;;;;5054195;28;19971;-62
2023/10/02 17:05:54;;;;;;;;;;;;;;;;;;5054513;28;19921;-62
2023/10/02 17:08:20;;;;;;;;;;;;;;;;;;5052621;28;19912;-62
2023/10/02 17:10:46;;;;;;;;;;;;;;;;;;5050781;28;19919;-62
2023/10/02 17:13:12;;;;;;;;;;;;;;;;;;5052443;28;19974;-62
2023/10/02 17:15:38;;;;;;;;;;;;;;;;;;5054686;28;19925;-62
2023/10/02 17:18:05;;;;;;;;;;;;;;;;;;5053836;28;19986;-62
2023/10/02 17:20:31;;;;;;;;;;;;;;;;;;5048942;28;20008;-59
2023/10/02 17:22:58;;;;;;;;;;;;;;;;;;5048305;28;20004;-60